Time;durP1;ratioP1;P1;durP2;ratioP2;P2;SDS_P1;SDS_P2;PMS_P1;PMS_P2;Temp;Humidity;BMP_temperature;BMP_pressure;BME280_temperature;BME280_humidity;BME280_pressure;Samples;Min_cycle;Max_cycle;Signal;HPM_P1;HPM_P2
2023/08/22 00:00:18;;;;;;;7.03;5.40;;;;;;;21.07;100.00;97651.03;5000721;28;20043;-58
2023/08/22 00:02:45;;;;;;;7.38;5.50;;;;;;;21.11;100.00;97657.53;4973572;28;20036;-59
2023/08/22 00:05:12;;;;;;;9.02;5.90;;;;;;;21.08;100.00;97646.34;5003676;28;20036;-58
2023/08/22 00:07:39;;;;;;;8.43;5.82;;;;;;;21.00;100.00;97643.22;4995206;28;20182;-58
2023/08/22 00:10:07;;;;;;;8.68;6.20;;;;;;;20.97;100.00;97643.06;4983368;28;20048;-58
2023/08/22 00:12:34;;;;;;;8.98;5.60;;;;;;;20.98;100.00;97650.19;4964167;28;20548;-58
2023/08/22 00:15:04;;;;;;;8.88;6.15;;;;;;;20.97;100.00;97648.56;4975269;28;20044;-59
2023/08/22 00:17:31;;;;;;;9.98;6.05;;;;;;;20.86;100.00;97651.50;4987192;28;20043;-58
2023/08/22 00:19:57;;;;;;;9.63;6.07;;;;;;;20.83;100.00;97646.66;4975105;28;20039;-59
2023/08/22 00:22:24;;;;;;;9.88;6.32;;;;;;;20.75;100.00;97639.16;4967895;28;20046;-59
2023/08/22 00:24:50;;;;;;;8.90;6.50;;;;;;;20.75;100.00;97644.66;4969301;28;20039;-58
2023/08/22 00:27:17;;;;;;;9.68;6.70;;;;;;;20.82;100.00;97639.50;4988446;28;20068;-58
2023/08/22 00:29:44;;;;;;;9.75;6.78;;;;;;;20.97;100.00;97640.31;4985670;28;20569;-59
2023/08/22 00:32:10;;;;;;;15.82;6.75;;;;;;;20.93;100.00;97629.09;4977843;28;20738;-58
2023/08/22 00:34:37;;;;;;;10.45;6.25;;;;;;;20.93;100.00;97634.59;4962646;28;20058;-59
2023/08/22 00:37:03;;;;;;;8.68;6.35;;;;;;;20.99;100.00;97633.34;4967557;28;20045;-59
2023/08/22 00:39:30;;;;;;;8.18;5.93;;;;;;;20.97;100.00;97634.78;4960992;28;20053;-58
2023/08/22 00:41:56;;;;;;;8.00;5.95;;;;;;;20.89;100.00;97631.66;4977603;28;20039;-58
2023/08/22 00:44:23;;;;;;;10.07;6.43;;;;;;;20.83;100.00;97632.09;4966769;28;20045;-59
2023/08/22 00:46:50;;;;;;;9.48;5.95;;;;;;;20.85;100.00;97632.56;4991490;28;20093;-58
2023/08/22 00:49:17;;;;;;;8.00;5.55;;;;;;;20.86;100.00;97629.50;4963997;28;20061;-57
2023/08/22 00:51:43;;;;;;;11.02;6.93;;;;;;;20.84;100.00;97626.25;4985207;28;20035;-58
2023/08/22 00:54:12;;;;;;;7.65;5.93;;;;;;;20.77;100.00;97621.22;4978603;28;20031;-59
2023/08/22 00:56:39;;;;;;;8.13;6.40;;;;;;;20.79;100.00;97631.91;4976970;28;20126;-59
2023/08/22 00:59:06;;;;;;;9.73;6.60;;;;;;;20.73;100.00;97625.72;4977271;28;20045;-58
2023/08/22 01:01:33;;;;;;;9.93;6.13;;;;;;;20.82;100.00;97616.69;5007307;28;20054;-58
2023/08/22 01:04:00;;;;;;;8.60;6.13;;;;;;;20.80;100.00;97615.06;4995940;28;20115;-58
2023/08/22 01:06:38;;;;;;;10.07;5.88;;;;;;;20.79;100.00;97607.13;4975828;28;20678;-58
2023/08/22 01:09:11;;;;;;;7.97;5.90;;;;;;;20.77;100.00;97603.88;4958009;28;20425;-57
2023/08/22 01:11:41;;;;;;;9.30;6.68;;;;;;;20.78;100.00;97600.00;4982345;28;20035;-59
2023/08/22 01:14:11;;;;;;;8.15;6.07;;;;;;;20.75;100.00;97606.13;4964162;28;20508;-59
2023/08/22 01:16:39;;;;;;;8.43;6.03;;;;;;;20.67;100.00;97608.50;4970635;28;20050;-58
2023/08/22 01:19:07;;;;;;;9.57;6.45;;;;;;;20.66;100.00;97609.66;4961425;28;20046;-59
2023/08/22 01:21:35;;;;;;;8.88;6.07;;;;;;;20.63;100.00;97613.00;4974575;28;20051;-57
2023/08/22 01:24:05;;;;;;;9.43;5.90;;;;;;;20.65;100.00;97612.69;4960230;28;20142;-58
2023/08/22 01:26:32;;;;;;;9.45;6.10;;;;;;;20.65;100.00;97618.19;4992137;28;20046;-59
2023/08/22 01:29:10;;;;;;;9.02;5.80;;;;;;;20.57;100.00;97617.03;4974036;28;20035;-59
2023/08/22 01:31:41;;;;;;;10.18;6.10;;;;;;;20.50;100.00;97611.94;4969877;28;20130;-59
2023/08/22 01:34:20;;;;;;;9.70;6.30;;;;;;;20.58;100.00;97609.56;5013759;28;20041;-59
2023/08/22 01:36:48;;;;;;;13.40;5.88;;;;;;;20.54;100.00;97603.88;5015131;28;20659;-59
2023/08/22 01:39:17;;;;;;;6.90;5.45;;;;;;;20.53;100.00;97605.03;4981787;28;20053;-59
2023/08/22 01:41:44;;;;;;;8.23;6.13;;;;;;;20.32;100.00;97612.94;4964995;28;20038;-59
2023/08/22 01:44:11;;;;;;;9.18;6.03;;;;;;;20.28;100.00;97612.75;4962755;28;20086;-59
2023/08/22 01:46:38;;;;;;;9.02;5.57;;;;;;;20.11;100.00;97607.88;4998885;28;20495;-59
2023/08/22 01:49:05;;;;;;;12.30;6.80;;;;;;;20.17;100.00;97603.91;4968538;28;20137;-59
2023/08/22 01:51:31;;;;;;;11.20;6.55;;;;;;;20.25;100.00;97605.94;4980009;28;20114;-58
2023/08/22 01:53:58;;;;;;;10.63;6.28;;;;;;;20.29;100.00;97606.13;4980611;28;20043;-58
2023/08/22 01:56:24;;;;;;;7.78;6.05;;;;;;;20.31;100.00;97601.09;4977184;28;20047;-59
2023/08/22 01:58:51;;;;;;;8.80;6.55;;;;;;;20.29;100.00;97603.38;4965310;28;20057;-59
2023/08/22 02:01:19;;;;;;;7.75;5.90;;;;;;;20.23;100.00;97607.38;4979387;28;20550;-58
2023/08/22 02:03:46;;;;;;;8.73;5.93;;;;;;;20.21;100.00;97604.09;4955342;28;20045;-59
2023/08/22 02:06:13;;;;;;;9.20;6.50;;;;;;;20.15;100.00;97608.91;4965119;28;20093;-58
2023/08/22 02:08:40;;;;;;;11.25;6.10;;;;;;;20.11;100.00;97603.22;4961105;28;20047;-58
2023/08/22 02:11:07;;;;;;;9.32;6.43;;;;;;;19.95;100.00;97607.38;4984378;28;20122;-58
2023/08/22 02:13:33;;;;;;;10.57;5.82;;;;;;;19.89;100.00;97609.44;4958272;28;20039;-59
2023/08/22 02:16:00;;;;;;;8.70;6.90;;;;;;;19.86;100.00;97602.63;4972214;28;20057;-57
2023/08/22 02:18:27;;;;;;;9.27;6.40;;;;;;;19.85;100.00;97606.50;4960158;28;20042;-58
2023/08/22 02:20:56;;;;;;;7.97;5.63;;;;;;;19.76;100.00;97603.63;4970942;28;20065;-58
2023/08/22 02:23:22;;;;;;;8.07;5.68;;;;;;;19.64;100.00;97600.59;4972959;28;20049;-58
2023/08/22 02:25:51;;;;;;;10.48;5.95;;;;;;;19.57;100.00;97605.72;4965654;28;20036;-58
2023/08/22 02:28:17;;;;;;;10.05;6.53;;;;;;;19.43;100.00;97601.03;4961469;28;20039;-57
2023/08/22 02:30:44;;;;;;;11.20;6.00;;;;;;;19.46;100.00;97607.84;4968580;28;20046;-58
2023/08/22 02:33:11;;;;;;;9.02;6.30;;;;;;;19.47;100.00;97612.22;4975549;28;20035;-58
2023/08/22 02:35:38;;;;;;;8.50;6.60;;;;;;;19.42;100.00;97609.56;4956816;28;20069;-59
2023/08/22 02:38:04;;;;;;;9.63;6.53;;;;;;;19.39;100.00;97611.00;4981166;28;20070;-59
2023/08/22 02:40:31;;;;;;;9.00;6.45;;;;;;;19.39;100.00;97613.75;4963052;28;20158;-58
2023/08/22 02:42:58;;;;;;;10.98;6.53;;;;;;;19.45;100.00;97614.44;4986432;28;20050;-60
2023/08/22 02:45:24;;;;;;;9.40;6.63;;;;;;;19.43;100.00;97613.94;4993930;28;20039;-59
2023/08/22 02:47:53;;;;;;;7.80;5.75;;;;;;;19.36;100.00;97611.59;4992024;28;20074;-58
2023/08/22 02:50:23;;;;;;;10.65;6.18;;;;;;;19.30;100.00;97607.31;4963419;28;20429;-58
2023/08/22 02:52:50;;;;;;;8.70;5.88;;;;;;;19.29;100.00;97611.19;4988611;28;20421;-60
2023/08/22 02:55:18;;;;;;;9.00;6.03;;;;;;;19.16;100.00;97616.34;4971185;28;20086;-59
2023/08/22 02:57:45;;;;;;;11.25;6.97;;;;;;;19.10;100.00;97618.34;4987486;28;20043;-58
2023/08/22 03:00:13;;;;;;;9.20;5.72;;;;;;;19.15;100.00;97605.66;4958533;28;20042;-58
2023/08/22 03:02:40;;;;;;;9.63;6.25;;;;;;;19.14;100.00;97607.63;4993111;28;20141;-59
2023/08/22 03:05:11;;;;;;;9.88;5.53;;;;;;;19.12;100.00;97600.81;4961095;28;20041;-59
2023/08/22 03:07:39;;;;;;;9.90;6.57;;;;;;;19.09;100.00;97594.78;5013500;28;20107;-59
2023/08/22 03:10:09;;;;;;;8.90;6.53;;;;;;;19.07;100.00;97596.22;4988073;28;20677;-59
2023/08/22 03:12:36;;;;;;;10.15;5.60;;;;;;;19.10;100.00;97595.59;4988986;28;20051;-59
2023/08/22 03:15:04;;;;;;;10.48;5.93;;;;;;;19.20;100.00;97594.63;4963779;28;20055;-59
2023/08/22 03:17:34;;;;;;;;;;;;;;;19.22;100.00;97597.84;4979718;28;20047;-59
2023/08/22 03:20:01;;;;;;;7.97;6.13;;;;;;;19.03;100.00;97595.97;4963356;28;19926;-58
2023/08/22 03:22:28;;;;;;;7.75;5.53;;;;;;;19.04;100.00;97597.59;5000339;28;20484;-58
2023/08/22 03:24:55;;;;;;;8.65;5.75;;;;;;;19.15;100.00;97601.00;4967198;28;20035;-59
2023/08/22 03:27:25;;;;;;;9.77;5.82;;;;;;;19.18;100.00;97603.16;4974952;28;20699;-55
2023/08/22 03:29:51;;;;;;;10.70;5.85;;;;;;;19.15;100.00;97601.00;4963253;28;20058;-53
2023/08/22 03:32:18;;;;;;;8.85;6.22;;;;;;;19.19;100.00;97606.69;4996753;28;20040;-54
2023/08/22 03:34:44;;;;;;;9.13;5.70;;;;;;;19.07;100.00;97596.22;4967320;28;20658;-53
2023/08/22 03:37:11;;;;;;;8.27;6.07;;;;;;;19.01;100.00;97595.44;4973556;28;20043;-53
2023/08/22 03:39:38;;;;;;;9.57;5.93;;;;;;;18.97;100.00;97597.16;4957549;28;20049;-51
2023/08/22 03:42:05;;;;;;;8.32;5.72;;;;;;;18.92;100.00;97603.59;4978219;28;20698;-53
2023/08/22 03:44:32;;;;;;;9.40;6.20;;;;;;;18.89;100.00;97593.19;4960036;28;20031;-55
2023/08/22 03:46:58;;;;;;;9.10;5.70;;;;;;;18.90;100.00;97596.78;4966837;28;20134;-54
2023/08/22 03:49:34;;;;;;;8.48;5.97;;;;;;;19.01;100.00;97603.69;4961328;28;20580;-55
2023/08/22 03:52:00;;;;;;;9.48;5.97;;;;;;;19.14;100.00;97595.81;4966288;28;20057;-52
2023/08/22 03:54:28;;;;;;;9.73;6.32;;;;;;;19.32;100.00;97600.38;4971865;28;20571;-53
2023/08/22 03:56:55;;;;;;;7.88;5.68;;;;;;;19.50;100.00;97590.44;4970273;28;20046;-52
2023/08/22 03:59:22;;;;;;;7.63;6.28;;;;;;;19.57;100.00;97594.72;4973533;28;20509;-54
2023/08/22 04:01:48;;;;;;;7.45;5.68;;;;;;;19.61;100.00;97595.75;5015571;28;20044;-56
2023/08/22 04:04:16;;;;;;;13.30;7.05;;;;;;;19.40;100.00;97595.31;5002706;28;20123;-52
2023/08/22 04:06:43;;;;;;;9.75;6.07;;;;;;;19.31;100.00;97590.53;4966614;28;20129;-54
2023/08/22 04:09:10;;;;;;;8.63;5.43;;;;;;;19.28;100.00;97596.66;4975880;28;20077;-55
2023/08/22 04:11:38;;;;;;;8.02;5.90;;;;;;;19.28;100.00;97596.66;4969428;28;20052;-54
2023/08/22 04:14:06;;;;;;;9.85;6.20;;;;;;;19.30;100.00;97599.06;4976833;28;20049;-52
2023/08/22 04:16:33;;;;;;;7.57;5.78;;;;;;;19.23;100.00;97604.97;4996540;28;20055;-53
2023/08/22 04:18:59;;;;;;;11.05;6.18;;;;;;;19.20;100.00;97606.38;4965378;28;20132;-53
2023/08/22 04:21:26;;;;;;;9.65;6.40;;;;;;;19.26;100.00;97598.88;4978123;28;20047;-53
2023/08/22 04:23:53;;;;;;;8.88;5.90;;;;;;;19.24;100.00;97606.63;4996976;28;20071;-52
2023/08/22 04:26:19;;;;;;;10.52;7.60;;;;;;;19.17;100.00;97608.94;4990100;28;20054;-53
2023/08/22 04:28:46;;;;;;;8.90;6.55;;;;;;;19.19;100.00;97620.41;4966934;28;20050;-53
2023/08/22 04:31:13;;;;;;;10.70;6.75;;;;;;;19.28;100.00;97617.78;4968298;28;20058;-54
2023/08/22 04:33:39;;;;;;;12.55;6.28;;;;;;;19.31;100.00;97620.72;4975116;28;20050;-51
2023/08/22 04:36:06;;;;;;;7.65;5.82;;;;;;;19.34;100.00;97622.88;4980859;28;20439;-55
2023/08/22 04:38:34;;;;;;;10.05;6.05;;;;;;;19.31;100.00;97625.44;4967379;28;20058;-53
2023/08/22 04:41:03;;;;;;;9.20;6.13;;;;;;;19.32;100.00;97629.78;4965397;28;20103;-52
2023/08/22 04:43:44;;;;;;;9.48;5.70;;;;;;;19.34;100.00;97628.38;4963175;28;20390;-53
2023/08/22 04:46:12;;;;;;;9.77;6.20;;;;;;;19.34;100.00;97622.88;4980084;28;20100;-53
2023/08/22 04:48:42;;;;;;;7.38;5.50;;;;;;;19.32;100.00;97627.84;4981167;28;20657;-53
2023/08/22 04:51:08;;;;;;;7.53;5.70;;;;;;;19.38;100.00;97625.03;5009422;28;20043;-54
2023/08/22 04:53:35;;;;;;;11.38;6.68;;;;;;;19.44;100.00;97621.88;5002169;28;20054;-51
2023/08/22 04:56:02;;;;;;;8.60;5.88;;;;;;;19.52;100.00;97625.84;4986670;28;20582;-50
2023/08/22 04:58:29;;;;;;;8.80;6.25;;;;;;;19.59;100.00;97625.44;4970246;28;20590;-62
2023/08/22 05:00:55;;;;;;;6.97;5.25;;;;;;;19.65;100.00;97628.88;4962465;28;20042;-63
2023/08/22 05:03:22;;;;;;;8.48;5.72;;;;;;;19.63;100.00;97630.00;4968323;28;20038;-63
2023/08/22 05:05:50;;;;;;;8.77;5.70;;;;;;;19.54;100.00;97631.84;4975970;28;20098;-63
2023/08/22 05:08:17;;;;;;;7.93;6.13;;;;;;;19.43;100.00;97633.16;4964244;28;20853;-63
2023/08/22 05:10:44;;;;;;;8.63;5.95;;;;;;;19.45;100.00;97630.91;4961325;28;20062;-62
2023/08/22 05:13:11;;;;;;;9.15;6.25;;;;;;;19.41;100.00;97629.88;4971847;28;20047;-62
2023/08/22 05:15:37;;;;;;;8.02;6.18;;;;;;;19.49;100.00;97631.94;4964183;28;20039;-62
2023/08/22 05:18:05;;;;;;;12.65;5.85;;;;;;;19.55;100.00;97630.72;4974358;28;20060;-62
2023/08/22 05:20:31;;;;;;;9.43;5.70;;;;;;;19.59;100.00;97639.16;4970177;28;20078;-62
2023/08/22 05:22:58;;;;;;;8.02;6.07;;;;;;;19.70;100.00;97629.59;4974143;28;20053;-62
2023/08/22 05:25:25;;;;;;;8.50;5.90;;;;;;;19.80;100.00;97628.59;5006404;28;20035;-62
2023/08/22 05:27:52;;;;;;;8.10;5.60;;;;;;;19.93;100.00;97635.16;4971145;28;20115;-62
2023/08/22 05:30:19;;;;;;;7.80;5.60;;;;;;;20.08;100.00;97630.50;4972936;28;20724;-63
2023/08/22 05:32:46;;;;;;;9.77;5.30;;;;;;;20.09;100.00;97632.13;4969716;28;20046;-63
2023/08/22 05:35:13;;;;;;;10.15;6.13;;;;;;;20.12;100.00;97629.56;4954553;28;20611;-63
2023/08/22 05:37:40;;;;;;;8.52;5.57;;;;;;;20.16;100.00;97634.47;5005195;28;20047;-62
2023/08/22 05:40:08;;;;;;;10.23;5.30;;;;;;;20.17;100.00;97631.41;5001633;28;20043;-62
2023/08/22 05:42:36;;;;;;;8.40;5.78;;;;;;;20.19;100.00;97625.59;4972665;28;20082;-63
2023/08/22 05:45:04;;;;;;;7.07;5.68;;;;;;;20.31;100.00;97625.84;5007723;28;20120;-63
2023/08/22 05:47:30;;;;;;;10.32;5.75;;;;;;;20.42;100.00;97631.13;4975764;28;20043;-62
2023/08/22 05:49:57;;;;;;;10.60;5.05;;;;;;;20.54;100.00;97629.44;4984452;28;20173;-62
2023/08/22 05:52:25;;;;;;;8.85;5.55;;;;;;;20.68;100.00;97625.84;4973105;28;20043;-63
2023/08/22 05:54:53;;;;;;;11.05;5.18;;;;;;;20.80;100.00;97626.06;4990954;28;20129;-62
2023/08/22 05:57:25;;;;;;;8.98;5.43;;;;;;;20.90;100.00;97630.53;5015010;28;20049;-63
2023/08/22 05:59:51;;;;;;;12.70;5.38;;;;;;;21.03;100.00;97623.34;4985087;28;20047;-63
2023/08/22 06:02:18;;;;;;;8.55;5.07;;;;;;;21.16;100.00;97629.88;4974436;28;20039;-62
2023/08/22 06:04:46;;;;;;;6.97;5.30;;;;;;;21.27;100.00;97626.88;4976296;28;20039;-63
2023/08/22 06:07:13;;;;;;;8.05;5.55;;;;;;;21.37;100.00;97626.56;4969568;28;20086;-62
2023/08/22 06:09:40;;;;;;;8.63;5.40;;;;;;;21.48;100.00;97635.38;4963757;28;20078;-61
2023/08/22 06:12:07;;;;;;;7.35;5.10;;;;;;;21.56;100.00;97631.84;4979572;28;20102;-62
2023/08/22 06:14:35;;;;;;;8.52;5.43;;;;;;;21.63;100.00;97630.59;4971932;28;20606;-62
2023/08/22 06:17:02;;;;;;;7.40;5.13;;;;;;;21.70;100.00;97637.25;5005225;28;20124;-62
2023/08/22 06:19:31;;;;;;;8.43;4.95;;;;;;;21.80;100.00;97632.59;4968771;28;20052;-62
2023/08/22 06:21:57;;;;;;;8.60;5.43;;;;;;;21.92;100.00;97632.78;5007942;28;20047;-63
2023/08/22 06:24:24;;;;;;;8.18;5.13;;;;;;;22.04;100.00;97632.16;4995564;28;20049;-63
2023/08/22 06:26:51;;;;;;;8.30;5.30;;;;;;;22.20;100.00;97632.53;4967243;28;20065;-61
2023/08/22 06:29:18;;;;;;;9.25;5.68;;;;;;;22.34;100.00;97639.84;4970251;28;20051;-62
2023/08/22 06:31:44;;;;;;;8.60;5.22;;;;;;;22.54;100.00;97632.03;4968455;28;20055;-63
2023/08/22 06:34:11;;;;;;;7.95;5.18;;;;;;;22.65;100.00;97641.66;5019378;28;20721;-63
2023/08/22 06:36:38;;;;;;;9.68;4.78;;;;;;;22.78;100.00;97641.81;4986212;28;20061;-63
2023/08/22 06:39:05;;;;;;;8.52;4.63;;;;;;;22.91;98.95;97639.97;4977266;28;20045;-63
2023/08/22 06:41:31;;;;;;;7.57;4.70;;;;;;;22.99;98.54;97634.47;4969371;28;20042;-63
2023/08/22 06:44:00;;;;;;;6.40;4.60;;;;;;;23.08;97.78;97639.16;4971186;28;20054;-63
2023/08/22 06:46:27;;;;;;;5.88;4.50;;;;;;;23.18;97.25;97638.78;4970817;28;20040;-63
2023/08/22 06:48:54;;;;;;;8.45;4.57;;;;;;;23.36;94.99;97636.81;4969966;28;20039;-62
2023/08/22 06:51:21;;;;;;;5.65;3.85;;;;;;;23.67;92.12;97636.88;4968501;28;20042;-63
2023/08/22 06:53:47;;;;;;;7.00;4.00;;;;;;;23.77;91.30;97642.81;4990768;28;20061;-63
2023/08/22 06:56:14;;;;;;;9.40;4.30;;;;;;;23.94;90.89;97646.63;4988926;28;20039;-60
2023/08/22 06:58:40;;;;;;;6.22;4.43;;;;;;;24.00;90.22;97650.81;5013780;28;20621;-61
2023/08/22 07:01:07;;;;;;;6.70;4.15;;;;;;;24.13;88.86;97651.75;4973001;28;20043;-61
2023/08/22 07:03:34;;;;;;;7.22;4.78;;;;;;;24.23;87.21;97656.09;5012374;28;20552;-60
2023/08/22 07:06:02;;;;;;;6.30;4.07;;;;;;;24.35;86.92;97654.53;4962344;28;20039;-62
2023/08/22 07:08:28;;;;;;;6.38;3.83;;;;;;;24.45;87.08;97651.38;4974096;28;20200;-63
2023/08/22 07:11:02;;;;;;;6.50;4.25;;;;;;;24.60;85.96;97655.50;4998478;28;20046;-61
2023/08/22 07:13:30;;;;;;;6.25;3.90;;;;;;;24.73;83.50;97656.34;4980977;28;20059;-64
2023/08/22 07:15:56;;;;;;;6.70;3.95;;;;;;;24.79;83.30;97665.25;4964653;28;20045;-61
2023/08/22 07:18:23;;;;;;;7.65;4.03;;;;;;;24.85;83.18;97658.41;4966863;28;20050;-63
2023/08/22 07:20:51;;;;;;;6.00;3.97;;;;;;;24.98;81.17;97658.47;4962116;28;20077;-60
2023/08/22 07:23:22;;;;;;;7.53;3.40;;;;;;;25.02;81.69;97659.41;4995222;28;20534;-60
2023/08/22 07:25:50;;;;;;;7.45;3.53;;;;;;;25.09;80.47;97656.06;4964031;28;20115;-61
2023/08/22 07:28:17;;;;;;;6.55;3.85;;;;;;;25.18;80.26;97662.31;4981325;28;20043;-61
2023/08/22 07:30:45;;;;;;;6.85;3.55;;;;;;;25.24;79.12;97663.72;4967174;28;20042;-62
2023/08/22 07:33:13;;;;;;;6.82;4.10;;;;;;;25.26;79.11;97663.38;4981013;28;20043;-61
2023/08/22 07:35:41;;;;;;;6.22;3.72;;;;;;;25.28;77.88;97659.09;4961845;28;20096;-61
2023/08/22 07:38:07;;;;;;;5.35;3.55;;;;;;;25.26;78.24;97663.38;4975530;28;20760;-62
2023/08/22 07:40:38;;;;;;;5.63;3.55;;;;;;;25.36;76.31;97667.66;4965625;28;20043;-61
2023/08/22 07:43:04;;;;;;;7.13;3.28;;;;;;;25.38;77.31;97671.72;4980902;28;20039;-62
2023/08/22 07:45:31;;;;;;;5.20;3.90;;;;;;;25.46;78.02;97670.00;4970641;28;20034;-61
2023/08/22 07:47:58;;;;;;;5.68;3.50;;;;;;;25.50;78.15;97679.25;4995896;28;20046;-61
2023/08/22 07:50:25;;;;;;;5.72;3.63;;;;;;;25.60;78.67;97674.44;4990451;28;20444;-61
2023/08/22 07:52:52;;;;;;;8.15;3.83;;;;;;;25.70;76.84;97677.59;5005456;28;20499;-61
2023/08/22 07:55:18;;;;;;;7.18;3.67;;;;;;;25.76;74.89;97675.38;4984587;28;20053;-60
2023/08/22 07:57:45;;;;;;;5.32;4.03;;;;;;;25.78;74.79;97678.63;4964450;28;20053;-60
2023/08/22 08:00:13;;;;;;;6.28;3.67;;;;;;;25.82;74.87;97678.72;4969840;28;20108;-62
2023/08/22 08:02:40;;;;;;;7.32;3.58;;;;;;;25.84;74.76;97679.19;4981094;28;20050;-62
2023/08/22 08:05:07;;;;;;;5.43;3.60;;;;;;;25.85;73.76;97678.03;4974008;28;20034;-63
2023/08/22 08:07:34;;;;;;;6.55;3.72;;;;;;;25.85;73.89;97680.81;4987839;28;20045;-64
2023/08/22 08:10:01;;;;;;;5.35;3.47;;;;;;;25.87;73.72;97675.72;4966378;28;20047;-60
2023/08/22 08:12:27;;;;;;;6.22;4.15;;;;;;;25.93;74.86;97671.56;4976490;28;20515;-63
2023/08/22 08:14:54;;;;;;;7.03;3.83;;;;;;;25.97;73.90;97675.28;4967907;28;20097;-62
2023/08/22 08:17:21;;;;;;;7.75;3.85;;;;;;;26.06;73.03;97677.91;4988577;28;20058;-62
2023/08/22 08:19:48;;;;;;;5.80;3.28;;;;;;;26.07;72.19;97678.72;4973035;28;20074;-62
2023/08/22 08:22:14;;;;;;;7.13;3.83;;;;;;;26.07;72.23;97675.94;4967094;28;20113;-62
2023/08/22 08:24:41;;;;;;;9.60;3.80;;;;;;;26.14;72.52;97675.38;4965172;28;20046;-62
2023/08/22 08:27:08;;;;;;;6.20;3.60;;;;;;;26.19;72.27;97673.16;4968533;28;20055;-62
2023/08/22 08:29:35;;;;;;;6.40;3.65;;;;;;;26.29;72.36;97677.47;4964922;28;20067;-62
2023/08/22 08:32:01;;;;;;;7.32;3.55;;;;;;;26.36;70.05;97680.44;4961458;28;20134;-62
2023/08/22 08:34:28;;;;;;;5.82;3.03;;;;;;;26.38;69.03;97682.88;4959569;28;20050;-62
2023/08/22 08:36:55;;;;;;;7.10;3.53;;;;;;;26.45;68.77;97679.50;4963957;28;20046;-62
2023/08/22 08:39:22;;;;;;;5.53;3.35;;;;;;;26.45;68.83;97683.09;4971552;28;20039;-62
2023/08/22 08:41:56;;;;;;;6.13;3.35;;;;;;;26.51;69.05;97680.06;4965526;28;20050;-62
2023/08/22 08:44:24;;;;;;;8.07;3.78;;;;;;;26.57;68.69;97685.03;4967813;28;20038;-62
2023/08/22 08:46:51;;;;;;;5.88;3.42;;;;;;;26.62;68.89;97676.47;4959205;28;20051;-62
2023/08/22 08:49:20;;;;;;;6.35;3.58;;;;;;;26.61;68.20;97685.94;4962772;28;20054;-62
2023/08/22 08:51:47;;;;;;;7.82;4.10;;;;;;;26.60;69.72;97676.00;4962664;28;20114;-63
2023/08/22 08:54:15;;;;;;;6.38;3.20;;;;;;;26.69;69.66;97675.06;4981651;28;20039;-62
2023/08/22 08:56:41;;;;;;;6.22;3.40;;;;;;;26.80;68.34;97676.19;4963140;28;20137;-65
2023/08/22 08:59:08;;;;;;;5.97;3.65;;;;;;;26.83;66.64;97674.66;4989721;28;20051;-62
2023/08/22 09:01:35;;;;;;;7.40;4.40;;;;;;;26.71;67.35;97679.09;4956758;28;20046;-62
2023/08/22 09:04:02;;;;;;;10.98;4.47;;;;;;;26.68;67.49;97674.22;4983978;28;20046;-63
2023/08/22 09:06:29;;;;;;;7.22;3.65;;;;;;;26.80;68.00;97678.13;4984755;28;20040;-62
2023/08/22 09:09:04;;;;;;;8.43;4.00;;;;;;;26.92;67.75;97666.97;4984006;28;20057;-64
2023/08/22 09:11:31;;;;;;;7.05;3.90;;;;;;;27.01;67.43;97669.63;4970849;28;20062;-62
2023/08/22 09:13:58;;;;;;;9.23;4.00;;;;;;;27.12;67.15;97667.16;4969277;28;20663;-64
2023/08/22 09:16:25;;;;;;;8.07;3.80;;;;;;;27.11;65.79;97671.09;4966732;28;20104;-62
2023/08/22 09:18:58;;;;;;;7.82;4.13;;;;;;;27.03;66.50;97675.66;4989927;28;20046;-64
2023/08/22 09:21:24;;;;;;;7.25;3.60;;;;;;;27.08;66.87;97680.16;4979738;28;20043;-63
2023/08/22 09:23:51;;;;;;;5.32;3.50;;;;;;;27.09;66.40;97671.44;4989797;28;20125;-63
2023/08/22 09:26:21;;;;;;;11.70;4.30;;;;;;;27.12;66.27;97667.16;4971862;28;20047;-65
2023/08/22 09:28:48;;;;;;;6.00;3.78;;;;;;;27.18;67.52;97662.13;4962892;28;20050;-64
2023/08/22 09:31:24;;;;;;;7.15;3.80;;;;;;;27.18;65.40;97664.91;4965387;28;20049;-63
2023/08/22 09:33:51;;;;;;;6.78;4.38;;;;;;;27.23;65.96;97664.69;4987467;28;20039;-63
2023/08/22 09:36:21;;;;;;;9.43;4.18;;;;;;;27.26;65.89;97658.38;4958997;28;20054;-62
2023/08/22 09:38:54;;;;;;;10.15;4.90;;;;;;;27.31;66.15;97660.91;4980883;28;20046;-63
2023/08/22 09:41:29;;;;;;;8.43;4.55;;;;;;;27.29;65.62;97660.47;5015257;28;20051;-62
2023/08/22 09:44:02;;;;;;;6.93;4.10;;;;;;;27.32;66.12;97658.94;4976481;28;20039;-63
2023/08/22 09:46:30;;;;;;;8.10;4.60;;;;;;;27.48;64.54;97656.97;4962423;28;20053;-63
2023/08/22 09:48:59;;;;;;;6.35;4.70;;;;;;;27.61;64.54;97663.31;4993580;28;20153;-63
2023/08/22 09:51:26;;;;;;;6.85;3.70;;;;;;;27.61;62.85;97663.31;4962103;28;20046;-63
2023/08/22 09:54:00;;;;;;;6.32;3.80;;;;;;;27.59;62.88;97670.34;4980482;28;20046;-63
2023/08/22 09:56:27;;;;;;;8.30;4.75;;;;;;;27.63;64.30;97668.47;4962361;28;20050;-63
2023/08/22 09:58:54;;;;;;;7.15;4.10;;;;;;;27.76;63.37;97667.25;4969877;28;20100;-63
2023/08/22 10:01:22;;;;;;;7.30;3.88;;;;;;;27.83;62.39;97663.81;4959000;28;20042;-63
2023/08/22 10:03:54;;;;;;;7.13;4.00;;;;;;;27.74;62.52;97664.00;4974726;28;20042;-63
2023/08/22 10:06:28;;;;;;;8.90;4.20;;;;;;;27.83;62.92;97658.25;4959190;28;20042;-63
2023/08/22 10:09:12;;;;;;;7.18;3.90;;;;;;;27.89;61.81;97653.22;4987688;28;20054;-63
2023/08/22 10:11:57;;;;;;;9.10;4.43;;;;;;;27.85;61.32;97655.91;4958846;28;20554;-63
2023/08/22 10:14:45;;;;;;;6.90;3.40;;;;;;;27.95;62.12;97650.97;4998242;28;20133;-63
2023/08/22 10:17:15;;;;;;;5.30;3.75;;;;;;;28.00;61.17;97653.47;4957523;28;20473;-63
2023/08/22 10:19:43;;;;;;;6.75;4.00;;;;;;;28.01;60.91;97661.44;4989566;28;20039;-63
2023/08/22 10:22:11;;;;;;;6.25;3.90;;;;;;;28.14;62.22;97651.03;4958446;28;20039;-63
2023/08/22 10:24:39;;;;;;;7.95;3.80;;;;;;;28.28;60.91;97650.59;4966023;28;20043;-63
2023/08/22 10:27:12;;;;;;;7.68;3.97;;;;;;;28.20;60.04;97646.00;5014028;28;20039;-63
2023/08/22 10:29:46;;;;;;;7.90;3.90;;;;;;;28.28;60.01;97646.97;4976796;28;20050;-63
2023/08/22 10:32:13;;;;;;;6.53;3.97;;;;;;;28.40;59.26;97651.59;4980455;28;20615;-63
2023/08/22 10:34:40;;;;;;;5.50;3.55;;;;;;;28.47;59.08;97643.41;4990632;28;20038;-63
2023/08/22 10:37:24;;;;;;;9.25;4.07;;;;;;;28.58;59.64;97643.63;4967880;28;20478;-63
2023/08/22 10:39:52;;;;;;;6.22;3.72;;;;;;;28.58;59.10;97646.41;5004787;28;20039;-64
2023/08/22 10:42:21;;;;;;;5.47;3.60;;;;;;;28.55;58.67;97650.75;4971136;28;20437;-63
2023/08/22 10:44:50;;;;;;;6.35;4.13;;;;;;;28.56;58.38;97641.22;4982638;28;20034;-63
2023/08/22 10:47:18;;;;;;;8.23;4.03;;;;;;;28.61;58.58;97651.28;4964759;28;20050;-63
2023/08/22 10:49:51;;;;;;;6.10;4.15;;;;;;;28.74;59.39;97651.91;4980169;28;20664;-63
2023/08/22 10:52:36;;;;;;;6.68;3.40;;;;;;;28.91;58.41;97647.91;4990153;28;20668;-63
2023/08/22 10:55:03;;;;;;;6.30;3.75;;;;;;;28.80;57.48;97652.44;4980168;28;20070;-63
2023/08/22 10:57:31;;;;;;;8.18;3.83;;;;;;;28.86;58.08;97642.63;4978863;28;20756;-63
2023/08/22 11:00:07;;;;;;;6.03;4.10;;;;;;;28.88;58.13;97645.81;4978943;28;20042;-63
2023/08/22 11:02:35;;;;;;;5.22;3.72;;;;;;;28.98;56.98;97641.69;4980433;28;20395;-63
2023/08/22 11:05:06;;;;;;;5.88;3.80;;;;;;;29.15;56.65;97637.59;4975802;28;20047;-63
2023/08/22 11:07:34;;;;;;;9.45;4.20;;;;;;;29.14;56.14;97637.97;4964629;28;20052;-62
2023/08/22 11:10:00;;;;;;;7.28;3.80;;;;;;;29.10;54.79;97645.47;4983937;28;20514;-61
2023/08/22 11:12:28;;;;;;;6.00;3.17;;;;;;;29.05;55.13;97639.03;4995728;28;20527;-61
2023/08/22 11:14:57;;;;;;;5.80;3.55;;;;;;;29.15;55.12;97631.22;4952548;28;20923;-62
2023/08/22 11:17:24;;;;;;;5.95;3.53;;;;;;;29.25;55.60;97638.19;4945509;28;20054;-63
2023/08/22 11:19:55;;;;;;;6.47;3.90;;;;;;;29.39;55.22;97638.44;4972496;28;20043;-62
2023/08/22 11:22:22;;;;;;;;;;;;;;;29.41;54.89;97650.00;4985726;28;20061;-62
2023/08/22 11:24:50;;;;;;;10.70;3.83;;;;;;;29.13;54.80;97639.16;4994053;28;20193;-64
2023/08/22 11:27:18;;;;;;;5.35;3.45;;;;;;;29.31;55.42;97631.13;4964508;28;20046;-63
2023/08/22 11:29:46;;;;;;;7.72;3.90;;;;;;;29.58;56.35;97636.78;4963808;28;20607;-63
2023/08/22 11:32:25;;;;;;;8.38;3.38;;;;;;;29.92;53.87;97636.91;4980595;28;20043;-70